createdAt,value
2019-05-30T00:00:05.724Z,97593.36
2019-05-30T00:04:46.793Z,97596.44
2019-05-30T00:09:43.107Z,97598.41
2019-05-30T00:14:37.698Z,97591.81
2019-05-30T00:19:34.013Z,97595.38
2019-05-30T00:24:28.568Z,97596.62
2019-05-30T00:29:23.134Z,97595.61
2019-05-30T00:34:17.737Z,97600.72
2019-05-30T00:39:12.341Z,97599.69
2019-05-30T00:44:06.980Z,97599.81
2019-05-30T00:49:02.458Z,97606.08
2019-05-30T00:53:58.475Z,97606.82
2019-05-30T00:58:53.204Z,97607.28
2019-05-30T01:03:47.810Z,97607.48
2019-05-30T01:08:42.411Z,97615.54
2019-05-30T01:13:37.007Z,97611.05
2019-05-30T01:18:31.642Z,97603.27
2019-05-30T01:23:26.250Z,97597.32
2019-05-30T01:28:20.849Z,97596.30
2019-05-30T01:33:15.528Z,97597.81
2019-05-30T01:38:10.137Z,97593.07
2019-05-30T01:43:06.090Z,97600.45
2019-05-30T01:48:02.785Z,97594.92
2019-05-30T01:52:58.373Z,97593.69
2019-05-30T01:57:53.197Z,97596.73
2019-05-30T02:02:47.792Z,97594.59
2019-05-30T02:07:42.522Z,97589.38
2019-05-30T02:12:37.141Z,97583.92
2019-05-30T02:17:31.739Z,97592.80
2019-05-30T02:22:26.335Z,97594.31
2019-05-30T02:27:20.932Z,97601.56
2019-05-30T02:32:15.600Z,97594.11
2019-05-30T02:37:12.613Z,97591.99
2019-05-30T02:42:07.471Z,97601.56
2019-05-30T02:47:03.527Z,97596.20
2019-05-30T02:51:58.755Z,97601.56
2019-05-30T02:56:53.352Z,97609.81
2019-05-30T03:02:00.862Z,97611.35
2019-05-30T03:06:44.593Z,97605.38
2019-05-30T03:11:39.326Z,97608.31
2019-05-30T03:16:33.928Z,97616.70
2019-05-30T03:21:28.597Z,97614.07
2019-05-30T03:26:23.341Z,97614.28
2019-05-30T03:31:28.751Z,97616.98
2019-05-30T03:36:28.269Z,97619.41
2019-05-30T03:41:14.137Z,97627.19
2019-05-30T03:46:14.995Z,97623.33
2019-05-30T03:51:14.884Z,97630.60
2019-05-30T03:56:17.295Z,97632.30
2019-05-30T04:01:16.456Z,97640.09
2019-05-30T04:06:21.476Z,97646.23
2019-05-30T04:11:20.965Z,97655.22
2019-05-30T04:16:15.974Z,97649.56
2019-05-30T04:21:13.128Z,97664.44
2019-05-30T04:26:07.505Z,97670.41
2019-05-30T04:31:02.252Z,97671.47
2019-05-30T04:35:56.891Z,97671.78
2019-05-30T04:40:52.062Z,97672.09
2019-05-30T04:45:46.642Z,97671.47
2019-05-30T04:50:41.236Z,97671.20
2019-05-30T04:55:35.854Z,97682.02
2019-05-30T05:00:30.480Z,97686.75
2019-05-30T05:05:27.072Z,97683.13
2019-05-30T05:10:22.552Z,97686.95
2019-05-30T05:15:18.682Z,97693.44
2019-05-30T05:20:15.160Z,97691.11
2019-05-30T05:25:09.995Z,97697.30
2019-05-30T05:30:08.119Z,97694.56
2019-05-30T05:35:02.714Z,97696.71
2019-05-30T05:39:57.308Z,97704.47
2019-05-30T05:44:51.893Z,97703.77
2019-05-30T05:49:46.563Z,97701.23
2019-05-30T05:54:41.143Z,97718.80
2019-05-30T05:59:35.751Z,97725.14
2019-05-30T06:04:30.331Z,97726.86
2019-05-30T06:09:24.930Z,97735.73
2019-05-30T06:14:19.915Z,97736.97
2019-05-30T06:19:14.866Z,97739.99
2019-05-30T06:24:09.527Z,97750.06
2019-05-30T06:29:04.188Z,97753.52
2019-05-30T06:33:58.902Z,97737.61
2019-05-30T06:38:53.560Z,97747.13
2019-05-30T06:43:48.173Z,97753.74
2019-05-30T06:48:42.762Z,97755.88
2019-05-30T06:53:37.376Z,97753.57
2019-05-30T06:58:47.115Z,97747.94
2019-05-30T07:03:28.605Z,97753.13
2019-05-30T07:08:23.245Z,97758.09
2019-05-30T07:13:17.984Z,97759.55
2019-05-30T07:18:12.633Z,97762.02
2019-05-30T07:23:07.241Z,97775.17
2019-05-30T07:28:01.838Z,97775.42
2019-05-30T07:32:56.446Z,97786.27
2019-05-30T07:37:51.042Z,97787.73
2019-05-30T07:42:45.711Z,97788.72
2019-05-30T07:47:40.352Z,97780.94
2019-05-30T07:52:34.954Z,97777.59
2019-05-30T07:57:30.264Z,97779.41
2019-05-30T08:02:25.175Z,97781.45
2019-05-30T08:07:19.760Z,97775.31
2019-05-30T08:12:14.360Z,97771.70
2019-05-30T08:17:08.967Z,97779.27
2019-05-30T08:22:03.644Z,97780.91
2019-05-30T08:26:58.223Z,97785.39
2019-05-30T08:31:52.820Z,97784.30
2019-05-30T08:36:47.403Z,97771.61
2019-05-30T08:41:42.007Z,97771.17
2019-05-30T08:46:37.849Z,97772.39
2019-05-30T08:51:32.561Z,97779.95
2019-05-30T08:56:28.513Z,97775.86
2019-05-30T09:01:23.624Z,97773.17
2019-05-30T09:06:18.210Z,97765.91
2019-05-30T09:11:12.800Z,97765.06
2019-05-30T09:16:07.420Z,97758.92
2019-05-30T09:21:02.027Z,97756.95
2019-05-30T09:25:56.706Z,97748.77
2019-05-30T09:30:51.290Z,97744.55
2019-05-30T09:35:46.954Z,97746.22
2019-05-30T09:40:42.163Z,97747.53
2019-05-30T09:45:38.147Z,97750.77
2019-05-30T09:50:32.749Z,97745.27
2019-05-30T09:55:28.160Z,97744.08
2019-05-30T10:00:25.906Z,97742.05
2019-05-30T10:05:24.679Z,97742.63
2019-05-30T10:10:22.396Z,97737.55
2019-05-30T10:15:17.800Z,97727.03
2019-05-30T10:20:14.088Z,97721.45
2019-05-30T10:25:09.385Z,97711.09
2019-05-30T10:30:07.297Z,97716.98
2019-05-30T10:35:01.958Z,97712.59
2019-05-30T10:39:58.728Z,97709.50
2019-05-30T10:44:53.439Z,97712.02
2019-05-30T10:49:49.786Z,97703.97
2019-05-30T10:54:45.030Z,97703.83
2019-05-30T10:59:41.162Z,97699.68
2019-05-30T11:04:35.739Z,97692.08
2019-05-30T11:09:34.922Z,97689.17
2019-05-30T11:14:29.501Z,97676.73
2019-05-30T11:19:24.092Z,97675.36
2019-05-30T11:24:18.720Z,97681.78
2019-05-30T11:29:13.346Z,97671.35
2019-05-30T11:34:07.938Z,97664.22
2019-05-30T11:39:03.320Z,97667.17
2019-05-30T11:43:57.922Z,97665.20
2019-05-30T11:48:53.626Z,97654.81
2019-05-30T11:53:49.723Z,97660.70
2019-05-30T11:58:44.687Z,97651.69
2019-05-30T12:03:39.297Z,97648.14
2019-05-30T12:08:33.871Z,97639.37
2019-05-30T12:13:28.476Z,97636.22
2019-05-30T12:18:23.048Z,97631.14
2019-05-30T12:23:17.650Z,97627.69
2019-05-30T12:28:12.299Z,97625.56
2019-05-30T12:33:06.946Z,97627.60
2019-05-30T12:38:05.993Z,97630.60
2019-05-30T12:42:59.849Z,97617.73
2019-05-30T12:47:55.134Z,97615.06
2019-05-30T12:52:50.129Z,97610.00
2019-05-30T12:57:44.785Z,97606.53
2019-05-30T13:02:39.430Z,97603.61
2019-05-30T13:07:34.038Z,97612.69
2019-05-30T13:12:28.617Z,97609.44
2019-05-30T13:17:23.214Z,97606.91
2019-05-30T13:22:17.851Z,97604.59
2019-05-30T13:27:12.485Z,97602.27
2019-05-30T13:32:07.126Z,97604.64
2019-05-30T13:37:02.919Z,97598.73
2019-05-30T13:41:57.789Z,97599.52
2019-05-30T13:46:52.387Z,97594.42
2019-05-30T13:51:46.942Z,97602.43
2019-05-30T13:56:41.541Z,97603.05
2019-05-30T14:01:36.133Z,97600.92
2019-05-30T14:06:30.753Z,97596.25
2019-05-30T14:11:25.326Z,97598.58
2019-05-30T14:16:19.918Z,97607.68
2019-05-30T14:21:14.495Z,97597.52
2019-05-30T14:26:09.511Z,97595.42
2019-05-30T14:31:05.030Z,97601.77
2019-05-30T14:35:59.752Z,97598.59
2019-05-30T14:40:54.323Z,97599.63
2019-05-30T14:45:48.923Z,97604.44
2019-05-30T14:50:43.564Z,97593.53
2019-05-30T14:55:38.158Z,97595.92
2019-05-30T15:00:32.803Z,97596.48
2019-05-30T15:05:27.412Z,97597.55
2019-05-30T15:10:22.302Z,97595.69
2019-05-30T15:15:18.868Z,97585.19
2019-05-30T15:20:15.346Z,97587.11
2019-05-30T15:25:12.197Z,97590.86
2019-05-30T15:30:12.634Z,97599.38
2019-05-30T15:35:10.834Z,97597.19
2019-05-30T15:40:10.954Z,97597.94
2019-05-30T15:45:09.770Z,97599.38
2019-05-30T15:50:08.300Z,97589.72
2019-05-30T15:55:03.489Z,97593.16
2019-05-30T15:59:58.058Z,97596.35
2019-05-30T16:04:52.657Z,97592.30
2019-05-30T16:09:47.622Z,97590.91
2019-05-30T16:14:42.425Z,97592.34
2019-05-30T16:19:37.011Z,97587.11
2019-05-30T16:24:31.610Z,97586.48
2019-05-30T16:29:26.190Z,97583.59
2019-05-30T16:34:20.794Z,97584.98
2019-05-30T16:39:16.029Z,97585.27
2019-05-30T16:44:10.952Z,97588.44
2019-05-30T16:49:05.592Z,97580.67
2019-05-30T16:54:00.425Z,97586.23
2019-05-30T16:58:54.999Z,97584.06
2019-05-30T17:03:49.604Z,97580.28
2019-05-30T17:08:44.194Z,97585.87
2019-05-30T17:13:38.771Z,97581.44
2019-05-30T17:18:33.364Z,97583.62
2019-05-30T17:23:27.947Z,97592.19
2019-05-30T17:28:22.547Z,97592.71
2019-05-30T17:33:18.299Z,97591.89
2019-05-30T17:38:13.447Z,97593.52
2019-05-30T17:43:08.099Z,97598.60
2019-05-30T17:48:15.623Z,97600.46
2019-05-30T17:52:59.031Z,97602.88
2019-05-30T17:57:53.635Z,97599.68
2019-05-30T18:02:48.214Z,97610.36
2019-05-30T18:07:42.824Z,97608.48
2019-05-30T18:12:37.471Z,97612.70
2019-05-30T18:17:32.078Z,97623.06
2019-05-30T18:22:27.579Z,97624.03
2019-05-30T18:27:23.760Z,97623.41
2019-05-30T18:32:18.804Z,97624.58
2019-05-30T18:37:13.475Z,97627.45
2019-05-30T18:42:08.072Z,97631.84
2019-05-30T18:47:02.697Z,97639.16
2019-05-30T18:51:57.267Z,97637.02
2019-05-30T18:56:51.883Z,97641.80
2019-05-30T19:01:46.460Z,97643.17
2019-05-30T19:06:41.053Z,97645.34
2019-05-30T19:11:36.990Z,97640.73
2019-05-30T19:16:32.422Z,97637.16
2019-05-30T19:21:27.934Z,97639.63
2019-05-30T19:26:22.869Z,97649.75
2019-05-30T19:31:17.459Z,97661.50
2019-05-30T19:36:12.037Z,97664.62
2019-05-30T19:41:06.640Z,97663.16
2019-05-30T19:46:01.208Z,97672.10
2019-05-30T19:50:55.804Z,97665.44
2019-05-30T19:55:50.380Z,97663.00
2019-05-30T20:00:57.859Z,97677.05
2019-05-30T20:05:42.242Z,97675.92
2019-05-30T20:10:37.246Z,97681.38
2019-05-30T20:15:33.329Z,97691.92
2019-05-30T20:20:27.977Z,97695.36
2019-05-30T20:25:22.726Z,97701.16
2019-05-30T20:30:18.309Z,97701.69
2019-05-30T20:35:13.205Z,97701.94
2019-05-30T20:40:10.005Z,97705.86
2019-05-30T20:45:10.139Z,97704.16
2019-05-30T20:50:07.958Z,97700.35
2019-05-30T20:55:02.549Z,97697.54
2019-05-30T20:59:57.125Z,97708.22
2019-05-30T21:04:51.813Z,97707.93
2019-05-30T21:09:47.217Z,97708.75
2019-05-30T21:14:45.731Z,97719.51
2019-05-30T21:19:40.407Z,97716.81
2019-05-30T21:24:36.324Z,97713.03
2019-05-30T21:29:30.985Z,97717.70
2019-05-30T21:34:25.727Z,97717.56
2019-05-30T21:39:20.741Z,97718.78
2019-05-30T21:44:15.368Z,97720.52
2019-05-30T21:49:09.936Z,97717.96
2019-05-30T21:54:04.599Z,97722.56
2019-05-30T21:58:59.218Z,97735.78
2019-05-30T22:03:53.810Z,97733.25
2019-05-30T22:08:49.301Z,97731.02
2019-05-30T22:13:45.297Z,97733.78
2019-05-30T22:18:40.217Z,97734.91
2019-05-30T22:23:35.008Z,97730.09
2019-05-30T22:28:29.594Z,97724.95
2019-05-30T22:33:24.197Z,97724.25
2019-05-30T22:38:18.773Z,97722.73
2019-05-30T22:43:24.920Z,97728.98
2019-05-30T22:48:09.742Z,97728.98
2019-05-30T22:53:04.420Z,97734.27
2019-05-30T22:57:58.989Z,97737.34
2019-05-30T23:02:54.052Z,97731.77
2019-05-30T23:07:49.374Z,97732.73
2019-05-30T23:12:44.267Z,97730.44
2019-05-30T23:17:38.996Z,97730.31
2019-05-30T23:22:33.610Z,97732.38
2019-05-30T23:27:28.186Z,97730.20
2019-05-30T23:32:22.781Z,97723.12
2019-05-30T23:37:17.385Z,97720.41
2019-05-30T23:42:11.988Z,97712.70
2019-05-30T23:47:06.575Z,97709.39
2019-05-30T23:52:01.186Z,97708.95
2019-05-30T23:56:56.509Z,97715.03
